Time;durP1;ratioP1;P1;durP2;ratioP2;P2;SDS_P1;SDS_P2;PMS_P1;PMS_P2;Temp;Humidity;BMP_temperature;BMP_pressure;BME280_temperature;BME280_humidity;BME280_pressure;Samples;Min_cycle;Max_cycle;Signal;HPM_P1;HPM_P2
2023/09/13 00:01:55;;;;;;;16.00;6.22;;;;;;;;;;5093123;28;20071;-63
2023/09/13 00:04:21;;;;;;;14.15;6.15;;;;;;;;;;5076746;28;20077;-64
2023/09/13 00:06:48;;;;;;;18.40;6.85;;;;;;;;;;5092195;28;20047;-63
2023/09/13 00:09:14;;;;;;;12.80;6.80;;;;;;;;;;5110856;28;20043;-63
2023/09/13 00:11:40;;;;;;;11.95;6.80;;;;;;;;;;5105337;28;20063;-63
2023/09/13 00:14:06;;;;;;;13.15;6.70;;;;;;;;;;5112002;28;20497;-63
2023/09/13 00:16:32;;;;;;;14.85;6.47;;;;;;;;;;5090826;28;20043;-63
2023/09/13 00:19:00;;;;;;;14.77;7.07;;;;;;;;;;5066523;28;20559;-63
2023/09/13 00:21:26;;;;;;;10.95;6.80;;;;;;;;;;5109934;28;20036;-63
2023/09/13 00:23:52;;;;;;;17.42;7.57;;;;;;;;;;5112631;28;20044;-63
2023/09/13 00:26:18;;;;;;;17.02;7.63;;;;;;;;;;5091186;28;20383;-63
2023/09/13 00:28:45;;;;;;;15.98;7.43;;;;;;;;;;5074591;28;20379;-63
2023/09/13 00:31:12;;;;;;;14.52;7.65;;;;;;;;;;5087532;28;20100;-63
2023/09/13 00:33:39;;;;;;;14.70;6.88;;;;;;;;;;5093037;28;21729;-64
2023/09/13 00:36:05;;;;;;;14.82;6.93;;;;;;;;;;5076163;28;20043;-64
2023/09/13 00:38:31;;;;;;;21.65;7.47;;;;;;;;;;5089552;28;20376;-64
2023/09/13 00:40:57;;;;;;;13.88;7.47;;;;;;;;;;5091452;28;20052;-63
2023/09/13 00:43:23;;;;;;;13.77;6.75;;;;;;;;;;5110475;28;20092;-62
2023/09/13 00:45:50;;;;;;;14.32;7.05;;;;;;;;;;5093489;28;20046;-63
2023/09/13 00:48:17;;;;;;;17.92;7.20;;;;;;;;;;5075698;28;20047;-63
2023/09/13 00:50:43;;;;;;;16.98;6.53;;;;;;;;;;5093423;28;20066;-63
2023/09/13 00:53:09;;;;;;;17.13;7.05;;;;;;;;;;5075842;28;20379;-63
2023/09/13 00:55:39;;;;;;;15.60;7.47;;;;;;;;;;5109909;28;20131;-63
2023/09/13 00:58:05;;;;;;;15.70;6.40;;;;;;;;;;5070518;28;20433;-64
2023/09/13 01:00:34;;;;;;;12.52;6.50;;;;;;;;;;5107175;28;20043;-63
2023/09/13 01:03:01;;;;;;;18.83;7.05;;;;;;;;;;5109611;28;20107;-63
2023/09/13 01:05:28;;;;;;;15.68;6.65;;;;;;;;;;5092840;28;20537;-63
2023/09/13 01:07:54;;;;;;;17.55;5.88;;;;;;;;;;5093221;28;20044;-63
2023/09/13 01:10:20;;;;;;;13.65;6.38;;;;;;;;;;5109515;28;20106;-63
2023/09/13 01:12:46;;;;;;;13.30;5.57;;;;;;;;;;5092984;28;20043;-63
2023/09/13 01:15:13;;;;;;;10.82;5.40;;;;;;;;;;5075156;28;20356;-63
2023/09/13 01:18:09;;;;;;;20.83;6.43;;;17.80;99.90;;;;;;5093753;28;20180;-63
2023/09/13 01:20:54;;;;;;;11.10;5.15;;;;;;;;;;5092499;28;20071;-63
2023/09/13 01:23:57;;;;;;;21.17;5.97;;;18.40;99.90;;;;;;5080983;28;20093;-63
2023/09/13 01:26:29;;;;;;;14.27;5.07;;;;;;;;;;5101120;28;20383;-64
2023/09/13 01:28:55;;;;;;;17.05;5.32;;;;;;;;;;5092649;28;20058;-64
2023/09/13 01:31:24;;;;;;;9.00;5.10;;;;;;;;;;5091120;28;20047;-63
2023/09/13 01:33:50;;;;;;;14.70;5.55;;;;;;;;;;5092189;28;20441;-63
2023/09/13 01:36:16;;;;;;;7.85;4.55;;;;;;;;;;5109458;28;20032;-63
2023/09/13 01:38:42;;;;;;;10.57;4.60;;;;;;;;;;5109603;28;20035;-62
2023/09/13 01:41:12;;;;;;;16.60;5.72;;;;;;;;;;5090504;28;20044;-63
2023/09/13 01:43:40;;;;;;;14.02;4.45;;;;;;;;;;5075647;28;20501;-63
2023/09/13 01:46:06;;;;;;;10.77;4.07;;;;;;;;;;5112813;28;20075;-64
2023/09/13 01:48:32;;;;;;;15.90;4.65;;;;;;;;;;5101348;28;20088;-62
2023/09/13 01:50:59;;;;;;;16.42;4.18;;;;;;;;;;5092929;28;20051;-63
2023/09/13 01:53:25;;;;;;;12.00;4.20;;;;;;;;;;5094319;28;20542;-63
2023/09/13 01:55:51;;;;;;;10.13;4.22;;;;;;;;;;5101867;28;20044;-62
2023/09/13 01:58:17;;;;;;;11.68;4.25;;;;;;;;;;5094530;28;20048;-63
2023/09/13 02:00:43;;;;;;;9.60;3.83;;;;;;;;;;5109174;28;20036;-63
2023/09/13 02:03:09;;;;;;;10.50;4.07;;;;;;;;;;5113372;28;20118;-63
2023/09/13 02:05:35;;;;;;;11.20;3.92;;;;;;;;;;5078401;28;20123;-62
2023/09/13 02:08:01;;;;;;;16.17;3.97;;;;;;;;;;5095247;28;20130;-62
2023/09/13 02:10:27;;;;;;;9.15;3.80;;;;;;;;;;5094253;28;20035;-62
2023/09/13 02:12:53;;;;;;;12.48;3.72;;;;;;;;;;5099156;28;20101;-62
2023/09/13 02:15:19;;;;;;;9.98;3.45;;;;;;;;;;5107380;28;20042;-62
2023/09/13 02:17:45;;;;;;;12.55;3.80;;;;;;;;;;5095212;28;20035;-63
2023/09/13 02:20:12;;;;;;;10.05;3.63;;;;;;;;;;5113096;28;20044;-62
2023/09/13 02:22:38;;;;;;;8.00;3.15;;;;;;;;;;5114245;28;20518;-62
2023/09/13 02:25:05;;;;;;;14.82;3.95;;;;;;;;;;5112338;28;20048;-63
2023/09/13 02:27:32;;;;;;;12.32;3.55;;;;;;;;;;5096610;28;20048;-62
2023/09/13 02:29:58;;;;;;;10.35;3.58;;;;;;;;;;5108566;28;20050;-63
2023/09/13 02:32:24;;;;;;;11.80;3.75;;;;;;;;;;5113399;28;20495;-62
2023/09/13 02:34:51;;;;;;;10.32;3.83;;;;;;;;;;5112620;28;20043;-62
2023/09/13 02:37:17;;;;;;;9.93;2.95;;;;;;;;;;5091786;28;20484;-63
2023/09/13 02:39:43;;;;;;;10.27;3.22;;;;;;;;;;5113108;28;20035;-62
2023/09/13 02:42:09;;;;;;;8.35;3.20;;;;;;;;;;5094648;28;20044;-62
2023/09/13 02:44:35;;;;;;;11.43;3.13;;;;;;;;;;5113211;28;20075;-63
2023/09/13 02:47:02;;;;;;;10.73;3.88;;;;;;;;;;5096665;28;20062;-63
2023/09/13 02:49:28;;;;;;;11.02;3.28;;;;;;;;;;5088123;28;20043;-62
2023/09/13 02:51:55;;;;;;;17.73;3.70;;;;;;;;;;5095661;28;20065;-62
2023/09/13 02:54:21;;;;;;;10.45;3.40;;;;;;;;;;5085357;28;20074;-62
2023/09/13 02:56:49;;;;;;;5.53;3.08;;;;;;;;;;5108995;28;20039;-62
2023/09/13 02:59:15;;;;;;;11.10;2.70;;;;;;;;;;5092927;28;20039;-62
2023/09/13 03:01:42;;;;;;;12.25;2.80;;;;;;;;;;5112115;28;20043;-62
2023/09/13 03:04:08;;;;;;;11.65;2.70;;;;;;;;;;5077114;28;20047;-64
2023/09/13 03:06:35;;;;;;;7.80;2.92;;;;;;;;;;5094215;28;20036;-63
2023/09/13 03:09:01;;;;;;;8.65;2.85;;;;;;;;;;5085330;28;20040;-64
2023/09/13 03:11:27;;;;;;;9.55;2.80;;;;;;;;;;5078401;28;20044;-64
2023/09/13 03:13:53;;;;;;;8.13;2.25;;;;;;;;;;5112827;28;20472;-63
2023/09/13 03:16:20;;;;;;;12.52;3.20;;;;;;;;;;5110589;28;20055;-64
2023/09/13 03:18:48;;;;;;;11.93;2.30;;;;;;;;;;5110763;28;20039;-64
2023/09/13 03:21:15;;;;;;;7.43;2.33;;;;;;;;;;5107406;28;20036;-64
2023/09/13 03:23:50;;;;;;;7.53;2.60;;;;;;;;;;5112446;28;20075;-64
2023/09/13 03:26:16;;;;;;;11.95;3.10;;;;;;;;;;5093817;28;20109;-64
2023/09/13 03:28:44;;;;;;;6.93;2.35;;;;;;;;;;5073238;28;20058;-65
2023/09/13 03:31:11;;;;;;;11.15;2.80;;;;;;;;;;5091973;28;20071;-65
2023/09/13 03:33:39;;;;;;;10.02;3.38;;;;;;;;;;5074333;28;20113;-65
2023/09/13 03:36:05;;;;;;;13.38;3.40;;;;;;;;;;5087326;28;20732;-65
2023/09/13 03:38:31;;;;;;;11.05;2.85;;;;;;;;;;5092582;28;20042;-64
2023/09/13 03:40:57;;;;;;;12.07;2.92;;;;;;;;;;5093236;28;20071;-64
2023/09/13 03:43:24;;;;;;;9.63;3.22;;;;;;;;;;5073875;28;20044;-64
2023/09/13 03:45:50;;;;;;;10.20;2.78;;;;;;;;;;5089643;28;20047;-64
2023/09/13 03:48:16;;;;;;;13.65;2.50;;;;;;;;;;5089145;28;20471;-65
2023/09/13 03:50:42;;;;;;;9.60;3.00;;;;;;;;;;5093269;28;20036;-64
2023/09/13 03:53:08;;;;;;;12.20;4.18;;;;;;;;;;5074302;28;20571;-64
2023/09/13 03:55:34;;;;;;;12.10;4.07;;;;;;;;;;5104850;28;20082;-64
2023/09/13 03:58:00;;;;;;;12.60;3.53;;;;;;;;;;5094952;28;20094;-64
2023/09/13 04:00:26;;;;;;;9.85;3.05;;;;;;;;;;5107716;28;20110;-63
2023/09/13 04:02:52;;;;;;;10.38;3.58;;;;;;;;;;5109510;28;20529;-63
2023/09/13 04:05:18;;;;;;;14.80;3.95;;;;;;;;;;5107953;28;20134;-64
2023/09/13 04:07:44;;;;;;;9.13;3.95;;;;;;;;;;5112252;28;20039;-64
2023/09/13 04:10:10;;;;;;;14.60;3.80;;;;;;;;;;5110200;28;20145;-64
2023/09/13 04:12:36;;;;;;;5.55;2.30;;;;;;;;;;5111267;28;20523;-65
2023/09/13 04:15:03;;;;;;;6.85;2.70;;;;;;;;;;5092724;28;20087;-65
2023/09/13 04:17:29;;;;;;;10.90;2.70;;;;;;;;;;5093542;28;20051;-63
2023/09/13 04:19:55;;;;;;;9.45;2.88;;;;;;;;;;5102194;28;20503;-63
2023/09/13 04:22:21;;;;;;;9.38;3.03;;;;;;;;;;5092977;28;20082;-62
2023/09/13 04:24:47;;;;;;;5.68;1.80;;;;;;;;;;5090259;28;20046;-62
2023/09/13 04:27:21;;;;;;;5.40;1.65;;;;;;;;;;5093741;28;20035;-62
2023/09/13 04:29:47;;;;;;;4.53;1.15;;;;;;;;;;5093943;28;20047;-63
2023/09/13 04:32:13;;;;;;;4.47;1.25;;;;;;;;;;5076703;28;20479;-62
2023/09/13 04:34:39;;;;;;;3.88;1.15;;;;;;;;;;5107732;28;20039;-62
2023/09/13 04:37:05;;;;;;;5.47;1.33;;;;;;;;;;5109882;28;20063;-61
2023/09/13 04:39:31;;;;;;;2.85;1.30;;;;;;;;;;5076856;28;20427;-61
2023/09/13 04:42:00;;;;;;;2.60;0.93;;;;;;;;;;5109941;28;20411;-62
2023/09/13 04:44:27;;;;;;;2.28;0.93;;;;;;;;;;5091850;28;20050;-62
2023/09/13 04:46:53;;;;;;;3.13;1.48;;;;;;;;;;5090834;28;20051;-61
2023/09/13 04:49:19;;;;;;;3.63;1.35;;;;;;;;;;5109801;28;20089;-62
2023/09/13 04:51:45;;;;;;;3.53;1.67;;;;;;;;;;5110430;28;20046;-60
2023/09/13 04:54:11;;;;;;;5.60;1.90;;;;;;;;;;5105448;28;20047;-61
2023/09/13 04:56:38;;;;;;;9.23;2.33;;;;;;;;;;5108343;28;20901;-61
2023/09/13 04:59:04;;;;;;;4.53;2.00;;;;;;;;;;5094208;28;20043;-61
2023/09/13 05:01:31;;;;;;;8.65;2.35;;;;;;;;;;5094239;28;20044;-60
2023/09/13 05:03:57;;;;;;;8.70;2.20;;;;;;;;;;5091890;28;20059;-60
2023/09/13 05:06:23;;;;;;;5.75;2.13;;;;;;;;;;5092793;28;20070;-63
2023/09/13 05:08:50;;;;;;;5.63;2.55;;;;;;;;;;5094144;28;20040;-62
2023/09/13 05:11:16;;;;;;;7.60;1.83;;;;;;;;;;5110521;28;20043;-62
2023/09/13 05:13:47;;;;;;;9.45;2.17;;;;;;;;;;5101961;28;20387;-62
2023/09/13 05:16:13;;;;;;;9.07;2.28;;;;;;;;;;5112541;28;20032;-62
2023/09/13 05:18:39;;;;;;;7.05;1.98;;;;;;;;;;5115523;28;20058;-62
2023/09/13 05:21:05;;;;;;;8.20;2.13;;;;;;;;;;5108864;28;20043;-65
2023/09/13 05:23:31;;;;;;;6.93;2.15;;;;;;;;;;5097677;28;20035;-65
2023/09/13 05:25:57;;;;;;;7.40;2.20;;;;;;;;;;5114868;28;20056;-64
2023/09/13 05:28:24;;;;;;;9.90;2.67;;;;;;;;;;5093387;28;20066;-64
2023/09/13 05:30:50;;;;;;;7.65;2.30;;;;;;;;;;5113961;28;20047;-64
2023/09/13 05:33:16;;;;;;;7.15;2.35;;;;;;;;;;5114958;28;20118;-61
2023/09/13 05:35:45;;;;;;;4.47;2.03;;;;;;;;;;5113664;28;20547;-64
2023/09/13 05:38:11;;;;;;;5.47;1.83;;;;;;;;;;5113493;28;20040;-64
2023/09/13 05:40:37;;;;;;;7.00;3.08;;;;;;;;;;5113668;28;20036;-64
2023/09/13 05:43:03;;;;;;;6.50;1.90;;;;;;;;;;5115173;28;20047;-64
2023/09/13 05:45:30;;;;;;;6.63;2.00;;;;;;;;;;5111702;28;20491;-66
2023/09/13 05:47:59;;;;;;;9.68;3.75;;;;;;;;;;5109844;28;20094;-66
2023/09/13 05:50:25;;;;;;;6.40;2.13;;;;;;;;;;5102148;28;20040;-66
2023/09/13 05:52:51;;;;;;;8.20;2.33;;;;;;;;;;5111814;28;20043;-66
2023/09/13 05:55:18;;;;;;;7.22;2.53;;;;;;;;;;5095340;28;20486;-66
2023/09/13 05:57:44;;;;;;;5.57;1.95;;;;;;;;;;5084084;28;20382;-65
2023/09/13 06:00:10;;;;;;;5.32;1.90;;;;;;;;;;5107326;28;20407;-64
2023/09/13 06:02:37;;;;;;;8.27;2.03;;;;;;;;;;5114723;28;20067;-65
2023/09/13 06:05:03;;;;;;;11.40;2.78;;;;;;;;;;5114619;28;20118;-64
2023/09/13 06:07:29;;;;;;;7.03;1.98;;;;;;;;;;5095634;28;20043;-66
2023/09/13 06:09:55;;;;;;;10.48;2.47;;;;;;;;;;5079503;28;20040;-66
2023/09/13 06:12:21;;;;;;;13.60;2.50;;;;;;;;;;5114635;28;20039;-66
2023/09/13 06:14:51;;;;;;;11.77;2.88;;;;;;;;;;5113857;28;20122;-66
2023/09/13 06:17:17;;;;;;;13.65;2.80;;;;;;;;;;5078709;28;20048;-66
2023/09/13 06:19:43;;;;;;;13.93;3.22;;;;;;;;;;5114684;28;20046;-66
2023/09/13 06:22:09;;;;;;;12.70;2.80;;;;;;;;;;5100871;28;20123;-65
2023/09/13 06:24:35;;;;;;;13.10;3.33;;;;;;;;;;5114829;28;20386;-65
2023/09/13 06:27:01;;;;;;;11.75;3.20;;;;;;;;;;5112996;28;20108;-65
2023/09/13 06:29:27;;;;;;;13.43;3.00;;;;;;;;;;5114416;28;20539;-64
2023/09/13 06:31:55;;;;;;;14.45;3.13;;;;;;;;;;5113737;28;20040;-63
2023/09/13 06:34:21;;;;;;;10.15;2.75;;;;;;;;;;5111304;28;20058;-64
2023/09/13 06:36:50;;;;;;;8.77;3.00;;;;;;;;;;5112545;28;20597;-64
2023/09/13 06:39:16;;;;;;;9.50;3.15;;;;;;;;;;5109497;28;20078;-64
2023/09/13 06:41:42;;;;;;;12.70;3.67;;;;;;;;;;5114330;28;20387;-64
2023/09/13 06:44:09;;;;;;;9.70;2.55;;;;;;;;;;5110102;28;20051;-62
2023/09/13 06:46:38;;;;;;;9.60;3.25;;;;;;;;;;5113362;28;20076;-62
2023/09/13 06:49:05;;;;;;;9.13;2.92;;;;;;;;;;5112848;28;20036;-62
2023/09/13 06:51:31;;;;;;;16.80;3.13;;;;;;;;;;5110305;28;20043;-61
2023/09/13 06:53:58;;;;;;;13.52;3.42;;;;;;;;;;5095264;28;20059;-61
2023/09/13 06:56:24;;;;;;;17.92;4.20;;;;;;;;;;5112125;28;20044;-61
2023/09/13 06:58:50;;;;;;;12.85;3.65;;;;;;;;;;5113876;28;20418;-61
2023/09/13 07:01:16;;;;;;;10.98;3.38;;;;;;;;;;5110261;28;20035;-62
2023/09/13 07:03:42;;;;;;;17.42;4.22;;;;;;;;;;5094472;28;20444;-61
2023/09/13 07:06:08;;;;;;;19.13;3.35;;;;;;;;;;5112755;28;20043;-62
2023/09/13 07:08:34;;;;;;;15.98;4.15;;;;;;;;;;5111916;28;20395;-62
2023/09/13 07:11:01;;;;;;;16.08;3.75;;;;;;;;;;5112759;28;20037;-61
2023/09/13 07:13:27;;;;;;;11.75;3.33;;;;;;;;;;5113380;28;20047;-62
2023/09/13 07:15:53;;;;;;;14.00;3.88;;;;;;;;;;5095430;28;20067;-61
2023/09/13 07:18:19;;;;;;;10.32;3.63;;;;;;;;;;5110576;28;20028;-61
2023/09/13 07:20:45;;;;;;;11.02;2.95;;;;;;;;;;5112598;28;20383;-61
2023/09/13 07:23:14;;;;;;;10.48;3.13;;;;;;;;;;5113198;28;20050;-61
2023/09/13 07:25:40;;;;;;;15.93;3.10;;;;;;;;;;5110935;28;20032;-61
2023/09/13 07:28:06;;;;;;;11.55;3.28;;;;;;;;;;5112900;28;20074;-61
2023/09/13 07:30:32;;;;;;;10.23;2.85;;;;;;;;;;5112735;28;20047;-61
2023/09/13 07:32:59;;;;;;;12.43;2.70;;;;;;;;;;5107914;28;20043;-61
2023/09/13 07:35:26;;;;;;;11.70;2.50;;;;;;;;;;5112059;28;20043;-61
2023/09/13 07:37:52;;;;;;;11.65;2.67;;;;;;;;;;5111264;27;20032;-61
2023/09/13 07:40:18;;;;;;;13.00;2.90;;;;;;;;;;5112528;28;20107;-61
2023/09/13 07:42:44;;;;;;;9.38;3.10;;;;;;;;;;5094974;28;20085;-61
2023/09/13 07:45:10;;;;;;;9.07;2.42;;;;;;;;;;5111100;28;20040;-61
2023/09/13 07:47:37;;;;;;;13.05;2.72;;;;;;;;;;5111561;28;20172;-61
2023/09/13 07:50:03;;;;;;;10.88;2.90;;;;;;;;;;5112705;28;20047;-61
2023/09/13 07:52:29;;;;;;;11.77;2.45;;;;;;;;;;5108161;28;20044;-61
2023/09/13 07:54:55;;;;;;;7.93;2.50;;;;;;;;;;5104118;28;20075;-61
2023/09/13 07:57:22;;;;;;;13.25;2.95;;;;;;;;;;5112404;28;20047;-62
2023/09/13 07:59:48;;;;;;;13.75;2.42;;;;;;;;;;5094335;28;20043;-62
2023/09/13 08:02:14;;;;;;;8.50;2.67;;;;;;;;;;5094056;28;20039;-62
2023/09/13 08:04:40;;;;;;;8.18;2.55;;;;;;;;;;5111942;28;20043;-61
2023/09/13 08:07:06;;;;;;;9.75;2.17;;;;;;;;;;5094396;28;20095;-61
2023/09/13 08:09:34;;;;;;;8.85;2.63;;;;;;;;;;5112103;28;20093;-62
2023/09/13 08:12:01;;;;;;;9.48;1.90;;;;;;;;;;5111498;28;20039;-61
2023/09/13 08:14:27;;;;;;;7.28;2.05;;;;;;;;;;5090512;28;20048;-61
2023/09/13 08:16:56;;;;;;;7.55;1.70;;;;;;;;;;5095158;28;20082;-61
2023/09/13 08:19:22;;;;;;;10.10;1.95;;;;;;;;;;5094399;28;20039;-61
2023/09/13 08:21:48;;;;;;;6.57;1.73;;;;;;;;;;5110096;28;20067;-61
2023/09/13 08:24:14;;;;;;;10.32;1.77;;;;;;;;;;5111314;28;20083;-61
2023/09/13 08:26:40;;;;;;;10.77;1.88;;;;;;;;;;5111933;28;20046;-61
2023/09/13 08:29:06;;;;;;;8.05;1.70;;;;;;;;;;5108666;28;20044;-61
2023/09/13 08:31:32;;;;;;;7.13;1.92;;;;;;;;;;5092714;28;20040;-61
2023/09/13 08:33:58;;;;;;;7.28;2.22;;;;;;;;;;5112514;28;20104;-61
2023/09/13 08:36:24;;;;;;;10.02;2.10;;;;;;;;;;5112205;28;20082;-61
2023/09/13 08:38:50;;;;;;;6.43;1.85;;;;;;;;;;5111057;28;20061;-63
2023/09/13 08:41:16;;;;;;;12.02;1.90;;;;;;;;;;5102379;28;20424;-62
2023/09/13 08:43:43;;;;;;;12.02;2.22;;;;;;;;;;5087055;28;20044;-64
2023/09/13 08:46:10;;;;;;;8.68;2.13;;;;;;;;;;5111463;28;20027;-64
2023/09/13 08:48:38;;;;;;;8.98;1.67;;;;;;;;;;5113240;28;20027;-64
2023/09/13 08:51:05;;;;;;;7.25;1.88;;;;;;;;;;5097063;28;20047;-66
2023/09/13 08:53:32;;;;;;;11.75;2.10;;;;;;;;;;5116540;28;20044;-64
2023/09/13 08:55:59;;;;;;;7.50;1.85;;;;;;;;;;5116958;27;20051;-66
2023/09/13 08:58:26;;;;;;;9.45;2.00;;;;;;;;;;5116083;28;20387;-65
2023/09/13 09:00:52;;;;;;;8.77;2.55;;;;;;;;;;5098399;28;20039;-65
2023/09/13 09:03:21;;;;;;;7.65;1.70;;;;;;;;;;5100005;27;20043;-64
2023/09/13 09:05:47;;;;;;;10.40;2.38;;;;;;;;;;5116026;27;20046;-65
2023/09/13 09:08:13;;;;;;;13.13;2.30;;;;;;;;;;5115863;28;20486;-65
2023/09/13 09:10:42;;;;;;;7.80;1.60;;;;;;;;;;5115790;28;20046;-65
2023/09/13 09:13:10;;;;;;;11.80;2.30;;;;;;;;;;5116144;28;20441;-66
2023/09/13 09:15:38;;;;;;;10.70;1.77;;;;;;;;;;5116078;28;20040;-66
2023/09/13 09:18:05;;;;;;;6.90;2.28;;;;;;;;;;5097250;28;20054;-66
2023/09/13 09:20:31;;;;;;;6.75;1.60;;;;;;;;;;5114932;28;20039;-66
2023/09/13 09:22:58;;;;;;;7.63;1.60;;;;;;;;;;5116070;28;20039;-68
2023/09/13 09:25:25;;;;;;;5.90;2.20;;;;;;;;;;5114711;27;20043;-70
2023/09/13 09:27:52;;;;;;;10.30;1.75;;;;;;;;;;5114101;27;20081;-63
2023/09/13 09:30:28;;;;;;;6.35;1.88;;;;;;;;;;5113397;28;20258;-63
2023/09/13 09:32:59;;;;;;;7.68;2.10;;;;;;;;;;5113855;28;20089;-63
2023/09/13 09:35:26;;;;;;;10.88;2.53;;;;;;;;;;5095850;28;20042;-63
2023/09/13 09:37:52;;;;;;;9.52;2.15;;;;;;;;;;5113726;28;20455;-63
2023/09/13 09:40:18;;;;;;;9.13;2.22;;;;;;;;;;5113677;28;20475;-62
2023/09/13 09:42:44;;;;;;;10.10;2.83;;;;;;;;;;5115658;28;20043;-63
2023/09/13 09:45:10;;;;;;;17.50;3.25;;;;;;;;;;5113926;28;20035;-63
2023/09/13 09:47:41;;;;;;;10.75;3.00;;;;;;;;;;5113468;28;20044;-63
2023/09/13 09:50:10;;;;;;;9.43;2.22;;;;;;;;;;5114925;28;20114;-63
2023/09/13 09:52:36;;;;;;;12.57;2.63;;;;;;;;;;5108328;28;20390;-63
2023/09/13 09:55:04;;;;;;;8.95;2.42;;;;;;;;;;5111386;28;20075;-61
2023/09/13 09:57:31;;;;;;;6.57;2.00;;;;;;;;;;5105859;28;20043;-63
2023/09/13 09:59:59;;;;;;;5.95;2.40;;;;;;;;;;5110827;28;20039;-62
2023/09/13 10:02:26;;;;;;;4.35;1.67;;;;;;;;;;5107880;28;20047;-63
2023/09/13 10:04:52;;;;;;;7.88;2.70;;;;;;;;;;5086614;28;20487;-62
2023/09/13 10:07:18;;;;;;;8.35;2.20;;;;;;;;;;5101491;28;20414;-62
2023/09/13 10:09:45;;;;;;;5.00;1.90;;;;;;;;;;5108480;28;20043;-62
2023/09/13 10:12:12;;;;;;;7.13;2.08;;;;;;;;;;5108488;28;20044;-62
2023/09/13 10:14:39;;;;;;;6.78;2.05;;;;;;;;;;5093814;28;20093;-62
2023/09/13 10:17:06;;;;;;;6.63;2.08;;;;;;;;;;5101005;28;20483;-63
2023/09/13 10:19:33;;;;;;;3.95;1.73;;;;;;;;;;5107510;28;20035;-63
2023/09/13 10:21:59;;;;;;;5.78;1.73;;;;;;;;;;5110915;28;20556;-62
2023/09/13 10:24:27;;;;;;;8.75;2.10;;;;;;;;;;5108966;28;20394;-62
2023/09/13 10:26:53;;;;;;;5.70;2.03;;;;;;;;;;5094106;28;20050;-63
2023/09/13 10:29:23;;;;;;;5.50;1.80;;;;;;;;;;5108079;28;20467;-63
2023/09/13 10:31:51;;;;;;;8.27;1.70;;;;;;;;;;5090557;28;20415;-62
2023/09/13 10:34:28;;;;;;;5.88;1.83;;;;;;;;;;5106512;28;20055;-62
2023/09/13 10:37:09;;;;;;;4.13;1.88;;;;;;;;;;5113307;28;20042;-62
2023/09/13 10:39:40;;;;;;;10.05;2.58;;;;;;;;;;5112152;28;20051;-63
2023/09/13 10:42:12;;;;;;;5.93;1.52;;;;;;;;;;5095221;28;20043;-62
2023/09/13 10:44:38;;;;;;;6.25;1.98;;;;;;;;;;5096063;28;20108;-62
2023/09/13 10:47:06;;;;;;;5.05;1.70;;;;;;;;;;5113808;28;20123;-63
2023/09/13 10:49:33;;;;;;;4.47;1.75;;;;;;;;;;5093010;28;20036;-63
2023/09/13 10:52:00;;;;;;;5.97;1.58;;;;;;;;;;5113883;28;20119;-63
2023/09/13 10:54:26;;;;;;;4.07;1.60;;;;;;;;;;5113822;28;20044;-63
2023/09/13 10:56:53;;;;;;;7.40;1.80;;;;;;;;;;5112910;28;20075;-62
2023/09/13 10:59:23;;;;;;;3.58;1.73;;;;;;;;;;5109208;28;20039;-63
2023/09/13 11:01:49;;;;;;;9.05;2.42;;;;;;;;;;5111940;28;20048;-62
2023/09/13 11:04:16;;;;;;;5.47;2.08;;;;;;;;;;5110287;28;20486;-63
2023/09/13 11:06:43;;;;;;;6.90;2.20;;;;;;;;;;5111550;28;20490;-63
2023/09/13 11:09:16;;;;;;;6.28;1.80;;;;;;;;;;5111389;28;20387;-62
2023/09/13 11:11:51;;;;;;;5.18;2.40;;;;;;;;;;5111477;28;20046;-62
2023/09/13 11:14:23;;;;;;;4.40;1.88;;;;;;;;;;5095136;28;20086;-62
2023/09/13 11:16:49;;;;;;;4.60;2.05;;;;;;;;;;5094650;28;20043;-63
2023/09/13 11:19:18;;;;;;;4.80;1.92;;;;;;;;;;5111674;28;20074;-62
2023/09/13 11:21:49;;;;;;;9.82;2.13;;;;;;;;;;5110535;27;20122;-62
2023/09/13 11:24:33;;;;;;;7.20;2.25;;;;;;;;;;5111385;28;20050;-62
2023/09/13 11:27:09;;;;;;;5.10;2.55;;;;;;;;;;5109050;28;20042;-63
2023/09/13 11:29:39;;;;;;;6.38;2.88;;;;;;;;;;5094216;28;20039;-62
2023/09/13 11:32:05;;;;;;;6.15;2.75;;;;;;;;;;5129909;27;20059;-63
2023/09/13 11:34:33;;;;;;;4.00;2.20;;;;;;;;;;5105832;27;20083;-63
2023/09/13 11:37:00;;;;;;;7.40;2.47;;;;;;;;;;5099708;28;20051;-63
2023/09/13 11:39:54;;;;;;;9.60;3.08;;;18.70;99.90;;;;;;5110329;28;20067;-63
2023/09/13 11:42:28;;;;;;;3.60;1.80;;;;;;;;;;5090606;28;20043;-64
2023/09/13 11:44:58;;;;;;;7.13;2.40;;;;;;;;;;5110134;28;20047;-64
2023/09/13 11:47:24;;;;;;;5.18;2.10;;;;;;;;;;5109232;28;20471;-64
2023/09/13 11:49:55;;;;;;;7.45;2.00;;;;;;;;;;5110471;28;20043;-64
2023/09/13 11:52:22;;;;;;;8.40;2.65;;;;;;;;;;5093479;28;20427;-63
2023/09/13 11:54:52;;;;;;;6.97;1.98;;;;;;;;;;5112911;28;20062;-64
2023/09/13 11:57:19;;;;;;;7.68;2.28;;;;;;;;;;5112250;28;20457;-64
2023/09/13 11:59:46;;;;;;;5.68;2.03;;;;;;;;;;5110096;28;20046;-64
2023/09/13 12:02:12;;;;;;;7.68;2.33;;;;;;;;;;5110347;28;20044;-63
2023/09/13 12:04:39;;;;;;;6.07;1.92;;;;;;;;;;5112354;28;20465;-63
2023/09/13 12:07:09;;;;;;;4.90;1.90;;;;;;;;;;5070429;28;20048;-64
2023/09/13 12:09:38;;;;;;;5.25;1.95;;;;;;;;;;5091798;28;20040;-64
2023/09/13 12:12:05;;;;;;;6.47;2.28;;;;;;;;;;5109103;28;20145;-64
2023/09/13 12:14:31;;;;;;;6.35;2.25;;;;;;;;;;5111812;28;20036;-64
2023/09/13 12:16:57;;;;;;;5.38;2.00;;;;;;;;;;5110591;28;20051;-64
2023/09/13 12:19:25;;;;;;;5.85;2.10;;;;;;;;;;5106864;28;20036;-64
2023/09/13 12:21:51;;;;;;;7.18;2.17;;;;;;;;;;5109235;28;20044;-65
2023/09/13 12:24:22;;;;;;;5.80;2.63;;;;;;;;;;5109183;28;20168;-64
2023/09/13 12:26:51;;;;;;;4.25;2.15;;;;;;;;;;5086267;28;20035;-64
2023/09/13 12:29:18;;;;;;;6.43;2.15;;;;;;;;;;5060919;28;20051;-64
2023/09/13 12:31:44;;;;;;;11.07;2.20;;;;;;;;;;5082466;28;20031;-65
2023/09/13 12:34:10;;;;;;;7.80;2.30;;;;;;;;;;5112007;28;20126;-64
2023/09/13 12:36:36;;;;;;;3.97;2.00;;;;;;;;;;5078687;28;20043;-64
2023/09/13 12:39:05;;;;;;;4.05;2.17;;;;;;;;;;5112001;28;20122;-63
2023/09/13 12:41:32;;;;;;;5.60;2.50;;;;;;;;;;5110597;28;20036;-64
2023/09/13 12:44:00;;;;;;;4.97;1.92;;;;;;;;;;5093324;28;20282;-64
2023/09/13 12:46:27;;;;;;;7.65;2.40;;;;;;;;;;5109277;28;20449;-64
2023/09/13 12:48:55;;;;;;;6.45;1.60;;;;;;;;;;5129900;28;20390;-64
2023/09/13 12:51:22;;;;;;;5.38;1.92;;;;;;;;;;5108534;28;20036;-64
2023/09/13 12:53:51;;;;;;;7.85;2.35;;;;;;;;;;5093589;28;20491;-65
2023/09/13 12:56:17;;;;;;;7.65;2.15;;;;;;;;;;5106340;28;20044;-64
2023/09/13 12:58:53;;;;;;;6.70;1.90;;;;;;;;;;5094357;28;20055;-65
2023/09/13 13:01:20;;;;;;;9.45;1.92;;;;;;;;;;5107258;28;20044;-64
2023/09/13 13:03:55;;;;;;;5.75;1.98;;;;;;;;;;5110383;28;20047;-64
2023/09/13 13:06:22;;;;;;;5.05;1.67;;;;;;;;;;5108942;28;20514;-64
2023/09/13 13:08:48;;;;;;;5.55;1.98;;;;;;;;;;5107651;28;20055;-65
2023/09/13 13:11:15;;;;;;;8.65;1.73;;;;;;;;;;5111497;28;20126;-65
2023/09/13 13:13:41;;;;;;;5.70;1.80;;;;;;;;;;5111006;28;20438;-63
2023/09/13 13:16:14;;;;;;;5.22;2.00;;;;;;;;;;5089593;28;20052;-64
2023/09/13 13:18:59;;;;;;;8.38;2.00;;;;;;;;;;5091693;28;20089;-64
2023/09/13 13:21:28;;;;;;;9.18;2.08;;;;;;;;;;5093849;28;20044;-64
2023/09/13 13:23:54;;;;;;;8.45;2.10;;;;;;;;;;5110360;28;20110;-64
2023/09/13 13:26:21;;;;;;;8.82;1.98;;;;;;;;;;5110751;28;20483;-65
2023/09/13 13:28:48;;;;;;;8.13;2.78;;;;;;;;;;5092655;28;20369;-64
2023/09/13 13:31:15;;;;;;;7.28;1.90;;;;;;;;;;5111337;28;20089;-64
2023/09/13 13:33:44;;;;;;;8.23;2.00;;;;;;;;;;5110463;28;20032;-65
2023/09/13 13:36:10;;;;;;;7.18;1.80;;;;;;;;;;5111191;28;20073;-62
2023/09/13 13:38:40;;;;;;;5.47;1.75;;;;;;;;;;5113057;28;20032;-64
2023/09/13 13:41:06;;;;;;;7.43;1.55;;;;;;;;;;5095565;28;20537;-63
2023/09/13 13:43:35;;;;;;;5.25;1.70;;;;;;;;;;5096953;28;20047;-63
2023/09/13 13:46:02;;;;;;;4.70;1.58;;;;;;;;;;5093785;28;20039;-64
2023/09/13 13:48:29;;;;;;;4.68;1.48;;;;;;;;;;5113187;28;20383;-63
2023/09/13 13:50:55;;;;;;;5.15;1.83;;;;;;;;;;5113777;28;20036;-64
2023/09/13 13:53:26;;;;;;;6.20;1.50;;;;;;;;;;5112244;28;20075;-64
2023/09/13 13:55:52;;;;;;;;;;;;;;;;;;5097450;28;20047;-64
2023/09/13 13:58:18;;;;;;;6.25;1.63;;;;;;;;;;5115164;28;20362;-64
2023/09/13 14:00:44;;;;;;;7.03;1.33;;;;;;;;;;5114735;28;20498;-64
2023/09/13 14:03:10;;;;;;;6.35;1.20;;;;;;;;;;5094334;28;20043;-63
2023/09/13 14:05:40;;;;;;;4.20;1.08;;;;;;;;;;5113619;28;20100;-65
2023/09/13 14:08:06;;;;;;;6.82;1.20;;;;;;;;;;5111631;28;20039;-64
2023/09/13 14:10:39;;;;;;;4.35;1.10;;;;;;;;;;5110818;28;20056;-65
2023/09/13 14:13:05;;;;;;;4.68;1.15;;;;;;;;;;5094957;28;20047;-64
2023/09/13 14:15:32;;;;;;;3.88;1.35;;;;;;;;;;5113451;28;20067;-64
2023/09/13 14:17:58;;;;;;;6.97;1.55;;;;;;;;;;5113990;28;20045;-65
2023/09/13 14:20:24;;;;;;;6.55;1.40;;;;;;;;;;5112876;28;20706;-64
2023/09/13 14:22:50;;;;;;;9.13;1.50;;;;;;;;;;5114297;28;20044;-66
2023/09/13 14:25:16;;;;;;;6.68;1.15;;;;;;;;;;5112380;28;20039;-65
2023/09/13 14:27:42;;;;;;;4.93;1.50;;;;;;;;;;5113275;28;20032;-64
2023/09/13 14:30:08;;;;;;;5.78;2.05;;;;;;;;;;5112327;28;20085;-64
2023/09/13 14:32:34;;;;;;;4.05;1.20;;;;;;;;;;5079781;28;20467;-65
2023/09/13 14:35:00;;;;;;;5.18;1.20;;;;;;;;;;5112052;28;20475;-65
2023/09/13 14:37:26;;;;;;;5.30;1.60;;;;;;;;;;5110038;28;20032;-64